sensor_id;sensor_type;location;lat;lon;timestamp;P1;durP1;ratioP1;P2;durP2;ratioP2
9240;SDS011;53485;49.326;9.738;2023-04-03T00:00:50;8.50;;;4.07;;
9240;SDS011;53485;49.326;9.738;2023-04-03T00:03:16;5.87;;;2.37;;
9240;SDS011;53485;49.326;9.738;2023-04-03T00:05:42;12.70;;;4.47;;
9240;SDS011;53485;49.326;9.738;2023-04-03T00:08:09;11.30;;;5.00;;
9240;SDS011;53485;49.326;9.738;2023-04-03T00:10:35;5.60;;;3.07;;
9240;SDS011;53485;49.326;9.738;2023-04-03T00:13:02;8.80;;;2.80;;
9240;SDS011;53485;49.326;9.738;2023-04-03T00:15:28;17.07;;;6.90;;
9240;SDS011;53485;49.326;9.738;2023-04-03T00:17:54;8.03;;;3.60;;
9240;SDS011;53485;49.326;9.738;2023-04-03T00:20:21;4.70;;;2.00;;
9240;SDS011;53485;49.326;9.738;2023-04-03T00:22:47;6.80;;;2.73;;
9240;SDS011;53485;49.326;9.738;2023-04-03T00:25:14;9.17;;;3.73;;
9240;SDS011;53485;49.326;9.738;2023-04-03T00:27:40;5.40;;;2.13;;
9240;SDS011;53485;49.326;9.738;2023-04-03T00:30:08;3.73;;;1.60;;
9240;SDS011;53485;49.326;9.738;2023-04-03T00:32:33;5.60;;;2.53;;
9240;SDS011;53485;49.326;9.738;2023-04-03T00:35:00;3.40;;;2.10;;
9240;SDS011;53485;49.326;9.738;2023-04-03T00:37:27;6.47;;;4.37;;
9240;SDS011;53485;49.326;9.738;2023-04-03T00:39:53;3.93;;;3.00;;
9240;SDS011;53485;49.326;9.738;2023-04-03T00:42:20;2.53;;;1.40;;
9240;SDS011;53485;49.326;9.738;2023-04-03T00:47:28;3.37;;;1.10;;
9240;SDS011;53485;49.326;9.738;2023-04-03T00:49:54;1.00;;;0.90;;
9240;SDS011;53485;49.326;9.738;2023-04-03T00:52:21;2.73;;;1.17;;
9240;SDS011;53485;49.326;9.738;2023-04-03T00:54:47;3.33;;;1.20;;
9240;SDS011;53485;49.326;9.738;2023-04-03T00:57:13;2.73;;;1.37;;
9240;SDS011;53485;49.326;9.738;2023-04-03T00:59:40;26.00;;;10.83;;
9240;SDS011;53485;49.326;9.738;2023-04-03T01:02:05;33.93;;;12.73;;
9240;SDS011;53485;49.326;9.738;2023-04-03T01:04:33;7.20;;;3.20;;
9240;SDS011;53485;49.326;9.738;2023-04-03T01:07:00;10.73;;;4.87;;
9240;SDS011;53485;49.326;9.738;2023-04-03T01:09:24;5.53;;;2.30;;
9240;SDS011;53485;49.326;9.738;2023-04-03T01:11:51;4.80;;;2.50;;
9240;SDS011;53485;49.326;9.738;2023-04-03T01:14:17;2.53;;;1.57;;
9240;SDS011;53485;49.326;9.738;2023-04-03T01:16:52;2.90;;;1.40;;
9240;SDS011;53485;49.326;9.738;2023-04-03T01:19:12;2.40;;;1.60;;
9240;SDS011;53485;49.326;9.738;2023-04-03T01:21:47;1.93;;;1.50;;
9240;SDS011;53485;49.326;9.738;2023-04-03T01:24:32;3.70;;;1.30;;
9240;SDS011;53485;49.326;9.738;2023-04-03T01:26:57;4.10;;;2.17;;
9240;SDS011;53485;49.326;9.738;2023-04-03T01:29:23;6.70;;;2.67;;
9240;SDS011;53485;49.326;9.738;2023-04-03T01:31:53;4.17;;;2.13;;
9240;SDS011;53485;49.326;9.738;2023-04-03T01:34:18;5.63;;;1.90;;
9240;SDS011;53485;49.326;9.738;2023-04-03T01:36:44;2.47;;;1.30;;
9240;SDS011;53485;49.326;9.738;2023-04-03T01:39:11;2.33;;;2.07;;
9240;SDS011;53485;49.326;9.738;2023-04-03T01:41:37;3.03;;;1.63;;
9240;SDS011;53485;49.326;9.738;2023-04-03T01:44:03;1.83;;;1.60;;
9240;SDS011;53485;49.326;9.738;2023-04-03T01:46:30;2.17;;;1.30;;
9240;SDS011;53485;49.326;9.738;2023-04-03T01:48:56;2.50;;;1.10;;
9240;SDS011;53485;49.326;9.738;2023-04-03T01:51:23;1.93;;;1.23;;
9240;SDS011;53485;49.326;9.738;2023-04-03T01:53:50;3.43;;;0.90;;
9240;SDS011;53485;49.326;9.738;2023-04-03T01:56:16;1.77;;;1.23;;
9240;SDS011;53485;49.326;9.738;2023-04-03T01:58:43;1.67;;;1.23;;
9240;SDS011;53485;49.326;9.738;2023-04-03T02:01:09;2.20;;;1.30;;
9240;SDS011;53485;49.326;9.738;2023-04-03T02:03:36;1.13;;;1.00;;
9240;SDS011;53485;49.326;9.738;2023-04-03T02:06:02;1.30;;;1.20;;
9240;SDS011;53485;49.326;9.738;2023-04-03T02:08:29;2.13;;;1.30;;
9240;SDS011;53485;49.326;9.738;2023-04-03T02:10:55;3.50;;;1.33;;
9240;SDS011;53485;49.326;9.738;2023-04-03T02:13:22;1.13;;;1.03;;
9240;SDS011;53485;49.326;9.738;2023-04-03T02:15:48;1.10;;;0.93;;
9240;SDS011;53485;49.326;9.738;2023-04-03T02:18:15;4.00;;;1.20;;
9240;SDS011;53485;49.326;9.738;2023-04-03T02:20:41;2.20;;;1.30;;
9240;SDS011;53485;49.326;9.738;2023-04-03T02:23:08;1.40;;;1.10;;
9240;SDS011;53485;49.326;9.738;2023-04-03T02:25:34;1.13;;;1.03;;
9240;SDS011;53485;49.326;9.738;2023-04-03T02:28:00;2.03;;;1.50;;
9240;SDS011;53485;49.326;9.738;2023-04-03T02:30:27;2.17;;;1.00;;
9240;SDS011;53485;49.326;9.738;2023-04-03T02:32:54;2.60;;;1.33;;
9240;SDS011;53485;49.326;9.738;2023-04-03T02:35:21;2.67;;;1.53;;
9240;SDS011;53485;49.326;9.738;2023-04-03T02:37:47;1.50;;;1.10;;
9240;SDS011;53485;49.326;9.738;2023-04-03T02:40:13;1.40;;;1.13;;
9240;SDS011;53485;49.326;9.738;2023-04-03T02:42:39;1.83;;;1.30;;
9240;SDS011;53485;49.326;9.738;2023-04-03T02:45:06;3.93;;;2.73;;
9240;SDS011;53485;49.326;9.738;2023-04-03T02:47:33;1.73;;;1.30;;
9240;SDS011;53485;49.326;9.738;2023-04-03T02:50:00;3.83;;;1.87;;
9240;SDS011;53485;49.326;9.738;2023-04-03T02:52:26;2.30;;;1.27;;
9240;SDS011;53485;49.326;9.738;2023-04-03T02:54:53;2.43;;;1.20;;
9240;SDS011;53485;49.326;9.738;2023-04-03T02:57:19;2.90;;;1.23;;
9240;SDS011;53485;49.326;9.738;2023-04-03T02:59:46;1.87;;;1.30;;
9240;SDS011;53485;49.326;9.738;2023-04-03T03:02:13;2.00;;;1.50;;
9240;SDS011;53485;49.326;9.738;2023-04-03T03:04:39;1.30;;;1.10;;
9240;SDS011;53485;49.326;9.738;2023-04-03T03:07:06;2.50;;;1.10;;
9240;SDS011;53485;49.326;9.738;2023-04-03T03:09:32;1.43;;;1.30;;
9240;SDS011;53485;49.326;9.738;2023-04-03T03:11:59;1.47;;;1.37;;
9240;SDS011;53485;49.326;9.738;2023-04-03T03:14:25;2.13;;;1.17;;
9240;SDS011;53485;49.326;9.738;2023-04-03T03:16:52;1.60;;;1.17;;
9240;SDS011;53485;49.326;9.738;2023-04-03T03:19:19;1.90;;;1.47;;
9240;SDS011;53485;49.326;9.738;2023-04-03T03:21:45;2.57;;;1.40;;
9240;SDS011;53485;49.326;9.738;2023-04-03T03:24:12;3.70;;;1.57;;
9240;SDS011;53485;49.326;9.738;2023-04-03T03:26:38;1.80;;;1.20;;
9240;SDS011;53485;49.326;9.738;2023-04-03T03:29:05;2.20;;;1.40;;
9240;SDS011;53485;49.326;9.738;2023-04-03T03:31:31;1.67;;;1.20;;
9240;SDS011;53485;49.326;9.738;2023-04-03T03:33:58;1.87;;;1.30;;
9240;SDS011;53485;49.326;9.738;2023-04-03T03:36:25;2.60;;;1.80;;
9240;SDS011;53485;49.326;9.738;2023-04-03T03:38:51;1.63;;;1.23;;
9240;SDS011;53485;49.326;9.738;2023-04-03T03:41:18;3.30;;;1.50;;
9240;SDS011;53485;49.326;9.738;2023-04-03T03:43:45;2.63;;;1.67;;
9240;SDS011;53485;49.326;9.738;2023-04-03T03:46:11;3.10;;;1.90;;
9240;SDS011;53485;49.326;9.738;2023-04-03T03:48:38;4.20;;;1.53;;
9240;SDS011;53485;49.326;9.738;2023-04-03T03:51:04;2.13;;;1.40;;
9240;SDS011;53485;49.326;9.738;2023-04-03T03:53:31;2.77;;;1.50;;
9240;SDS011;53485;49.326;9.738;2023-04-03T03:55:57;5.77;;;1.80;;
9240;SDS011;53485;49.326;9.738;2023-04-03T03:58:24;3.57;;;1.37;;
9240;SDS011;53485;49.326;9.738;2023-04-03T04:00:51;2.43;;;1.90;;
9240;SDS011;53485;49.326;9.738;2023-04-03T04:03:17;2.20;;;1.60;;
9240;SDS011;53485;49.326;9.738;2023-04-03T04:05:44;2.60;;;1.67;;
9240;SDS011;53485;49.326;9.738;2023-04-03T04:08:10;1.73;;;1.63;;
9240;SDS011;53485;49.326;9.738;2023-04-03T04:10:37;2.63;;;1.40;;
9240;SDS011;53485;49.326;9.738;2023-04-03T04:13:03;1.43;;;1.33;;
9240;SDS011;53485;49.326;9.738;2023-04-03T04:15:30;3.37;;;1.30;;
9240;SDS011;53485;49.326;9.738;2023-04-03T04:17:56;3.03;;;1.63;;
9240;SDS011;53485;49.326;9.738;2023-04-03T04:20:23;1.77;;;1.17;;
9240;SDS011;53485;49.326;9.738;2023-04-03T04:22:50;1.50;;;1.20;;
9240;SDS011;53485;49.326;9.738;2023-04-03T04:25:16;1.97;;;1.73;;
9240;SDS011;53485;49.326;9.738;2023-04-03T04:27:43;3.20;;;1.97;;
9240;SDS011;53485;49.326;9.738;2023-04-03T04:30:10;1.97;;;1.23;;
9240;SDS011;53485;49.326;9.738;2023-04-03T04:32:37;2.97;;;1.40;;
9240;SDS011;53485;49.326;9.738;2023-04-03T04:35:03;1.47;;;1.20;;
9240;SDS011;53485;49.326;9.738;2023-04-03T04:37:29;2.97;;;1.70;;
9240;SDS011;53485;49.326;9.738;2023-04-03T04:39:56;2.60;;;1.47;;
9240;SDS011;53485;49.326;9.738;2023-04-03T04:42:22;4.80;;;1.90;;
9240;SDS011;53485;49.326;9.738;2023-04-03T04:44:49;3.23;;;2.13;;
9240;SDS011;53485;49.326;9.738;2023-04-03T04:47:15;3.33;;;1.73;;
9240;SDS011;53485;49.326;9.738;2023-04-03T04:49:42;3.10;;;1.70;;
9240;SDS011;53485;49.326;9.738;2023-04-03T04:52:09;4.33;;;2.43;;
9240;SDS011;53485;49.326;9.738;2023-04-03T04:54:35;3.60;;;2.20;;
9240;SDS011;53485;49.326;9.738;2023-04-03T04:57:02;3.50;;;2.13;;
9240;SDS011;53485;49.326;9.738;2023-04-03T04:59:29;3.53;;;1.87;;
9240;SDS011;53485;49.326;9.738;2023-04-03T05:01:55;5.10;;;1.93;;
9240;SDS011;53485;49.326;9.738;2023-04-03T05:04:22;3.03;;;2.17;;
9240;SDS011;53485;49.326;9.738;2023-04-03T05:06:49;1.90;;;1.63;;
9240;SDS011;53485;49.326;9.738;2023-04-03T05:09:15;3.27;;;2.40;;
9240;SDS011;53485;49.326;9.738;2023-04-03T05:11:42;2.23;;;2.13;;
9240;SDS011;53485;49.326;9.738;2023-04-03T05:14:08;4.40;;;2.60;;
9240;SDS011;53485;49.326;9.738;2023-04-03T05:16:35;6.40;;;3.03;;
9240;SDS011;53485;49.326;9.738;2023-04-03T05:19:02;4.03;;;3.53;;
9240;SDS011;53485;49.326;9.738;2023-04-03T05:21:28;4.03;;;3.60;;
9240;SDS011;53485;49.326;9.738;2023-04-03T05:23:54;4.47;;;3.40;;
9240;SDS011;53485;49.326;9.738;2023-04-03T05:26:21;8.07;;;3.30;;
9240;SDS011;53485;49.326;9.738;2023-04-03T05:28:48;3.77;;;3.10;;
9240;SDS011;53485;49.326;9.738;2023-04-03T05:31:14;5.27;;;4.20;;
9240;SDS011;53485;49.326;9.738;2023-04-03T05:33:41;5.80;;;3.57;;
9240;SDS011;53485;49.326;9.738;2023-04-03T05:36:08;5.67;;;3.10;;
9240;SDS011;53485;49.326;9.738;2023-04-03T05:38:34;5.93;;;3.10;;
9240;SDS011;53485;49.326;9.738;2023-04-03T05:41:01;5.63;;;3.43;;
9240;SDS011;53485;49.326;9.738;2023-04-03T05:43:27;4.07;;;3.33;;
9240;SDS011;53485;49.326;9.738;2023-04-03T05:45:54;6.17;;;4.07;;
9240;SDS011;53485;49.326;9.738;2023-04-03T05:48:20;4.33;;;3.93;;
9240;SDS011;53485;49.326;9.738;2023-04-03T05:50:47;9.07;;;3.90;;
9240;SDS011;53485;49.326;9.738;2023-04-03T05:53:17;9.07;;;3.50;;
9240;SDS011;53485;49.326;9.738;2023-04-03T05:55:41;4.73;;;4.00;;
9240;SDS011;53485;49.326;9.738;2023-04-03T05:58:08;4.10;;;3.23;;
9240;SDS011;53485;49.326;9.738;2023-04-03T06:00:35;4.50;;;4.10;;
9240;SDS011;53485;49.326;9.738;2023-04-03T06:03:01;4.63;;;3.57;;
9240;SDS011;53485;49.326;9.738;2023-04-03T06:05:27;10.87;;;4.43;;
9240;SDS011;53485;49.326;9.738;2023-04-03T06:07:54;4.40;;;3.97;;
9240;SDS011;53485;49.326;9.738;2023-04-03T06:10:20;7.57;;;3.97;;
9240;SDS011;53485;49.326;9.738;2023-04-03T06:12:47;7.83;;;4.10;;
9240;SDS011;53485;49.326;9.738;2023-04-03T06:15:13;6.73;;;3.57;;
9240;SDS011;53485;49.326;9.738;2023-04-03T06:17:40;4.53;;;4.20;;
9240;SDS011;53485;49.326;9.738;2023-04-03T06:20:06;4.40;;;2.90;;
9240;SDS011;53485;49.326;9.738;2023-04-03T06:22:33;4.87;;;3.90;;
9240;SDS011;53485;49.326;9.738;2023-04-03T06:24:59;5.30;;;4.33;;
9240;SDS011;53485;49.326;9.738;2023-04-03T06:27:26;5.97;;;3.47;;
9240;SDS011;53485;49.326;9.738;2023-04-03T06:29:52;3.83;;;3.13;;
9240;SDS011;53485;49.326;9.738;2023-04-03T06:32:19;6.47;;;3.50;;
9240;SDS011;53485;49.326;9.738;2023-04-03T06:34:46;5.93;;;3.87;;
9240;SDS011;53485;49.326;9.738;2023-04-03T06:37:15;6.17;;;3.97;;
9240;SDS011;53485;49.326;9.738;2023-04-03T06:39:41;6.50;;;3.93;;
9240;SDS011;53485;49.326;9.738;2023-04-03T06:42:08;3.80;;;3.50;;
9240;SDS011;53485;49.326;9.738;2023-04-03T06:44:34;6.57;;;3.23;;
9240;SDS011;53485;49.326;9.738;2023-04-03T06:47:01;6.23;;;3.67;;
9240;SDS011;53485;49.326;9.738;2023-04-03T06:49:28;9.30;;;3.40;;
9240;SDS011;53485;49.326;9.738;2023-04-03T06:51:54;5.47;;;3.83;;
9240;SDS011;53485;49.326;9.738;2023-04-03T06:54:20;6.90;;;3.13;;
9240;SDS011;53485;49.326;9.738;2023-04-03T06:56:46;4.27;;;3.47;;
9240;SDS011;53485;49.326;9.738;2023-04-03T06:59:13;4.70;;;3.27;;
9240;SDS011;53485;49.326;9.738;2023-04-03T07:01:39;3.83;;;2.67;;
9240;SDS011;53485;49.326;9.738;2023-04-03T07:04:06;3.90;;;3.07;;
9240;SDS011;53485;49.326;9.738;2023-04-03T07:06:32;6.53;;;2.93;;
9240;SDS011;53485;49.326;9.738;2023-04-03T07:08:58;4.23;;;2.80;;
9240;SDS011;53485;49.326;9.738;2023-04-03T07:11:24;4.03;;;2.70;;
9240;SDS011;53485;49.326;9.738;2023-04-03T07:13:51;3.70;;;2.43;;
9240;SDS011;53485;49.326;9.738;2023-04-03T07:16:17;5.57;;;3.13;;
9240;SDS011;53485;49.326;9.738;2023-04-03T07:18:44;5.57;;;2.73;;
9240;SDS011;53485;49.326;9.738;2023-04-03T07:21:09;7.17;;;2.50;;
9240;SDS011;53485;49.326;9.738;2023-04-03T07:23:36;5.17;;;2.10;;
9240;SDS011;53485;49.326;9.738;2023-04-03T07:26:02;5.20;;;2.30;;
9240;SDS011;53485;49.326;9.738;2023-04-03T07:28:29;3.27;;;2.27;;
9240;SDS011;53485;49.326;9.738;2023-04-03T07:31:01;2.83;;;1.90;;
9240;SDS011;53485;49.326;9.738;2023-04-03T07:33:27;4.67;;;2.03;;
9240;SDS011;53485;49.326;9.738;2023-04-03T07:35:53;6.27;;;2.30;;
9240;SDS011;53485;49.326;9.738;2023-04-03T07:38:19;4.77;;;2.33;;
9240;SDS011;53485;49.326;9.738;2023-04-03T07:40:47;5.47;;;1.80;;
9240;SDS011;53485;49.326;9.738;2023-04-03T07:43:13;4.50;;;1.70;;
9240;SDS011;53485;49.326;9.738;2023-04-03T07:45:39;5.60;;;1.70;;
9240;SDS011;53485;49.326;9.738;2023-04-03T07:48:06;3.03;;;2.43;;
9240;SDS011;53485;49.326;9.738;2023-04-03T07:50:32;4.90;;;2.10;;
9240;SDS011;53485;49.326;9.738;2023-04-03T07:52:58;4.27;;;2.00;;
9240;SDS011;53485;49.326;9.738;2023-04-03T07:55:25;4.53;;;2.20;;
9240;SDS011;53485;49.326;9.738;2023-04-03T07:57:52;4.37;;;2.10;;
9240;SDS011;53485;49.326;9.738;2023-04-03T08:00:18;3.80;;;1.87;;
9240;SDS011;53485;49.326;9.738;2023-04-03T08:02:45;4.67;;;1.97;;
9240;SDS011;53485;49.326;9.738;2023-04-03T08:05:11;4.20;;;2.20;;
9240;SDS011;53485;49.326;9.738;2023-04-03T08:07:38;4.40;;;1.87;;
9240;SDS011;53485;49.326;9.738;2023-04-03T08:10:04;3.27;;;2.10;;
9240;SDS011;53485;49.326;9.738;2023-04-03T08:12:31;3.00;;;1.97;;
9240;SDS011;53485;49.326;9.738;2023-04-03T08:14:59;3.80;;;1.70;;
9240;SDS011;53485;49.326;9.738;2023-04-03T08:17:24;3.73;;;2.47;;
9240;SDS011;53485;49.326;9.738;2023-04-03T08:19:50;4.17;;;1.67;;
9240;SDS011;53485;49.326;9.738;2023-04-03T08:22:17;2.40;;;2.17;;
9240;SDS011;53485;49.326;9.738;2023-04-03T08:24:44;4.60;;;1.97;;
9240;SDS011;53485;49.326;9.738;2023-04-03T08:27:10;2.33;;;1.43;;
9240;SDS011;53485;49.326;9.738;2023-04-03T08:29:37;4.07;;;1.67;;
9240;SDS011;53485;49.326;9.738;2023-04-03T08:32:04;4.37;;;1.50;;
9240;SDS011;53485;49.326;9.738;2023-04-03T08:34:30;2.93;;;1.27;;
9240;SDS011;53485;49.326;9.738;2023-04-03T08:36:56;5.03;;;1.43;;
9240;SDS011;53485;49.326;9.738;2023-04-03T08:39:23;5.00;;;1.53;;
9240;SDS011;53485;49.326;9.738;2023-04-03T08:41:49;1.77;;;1.37;;
9240;SDS011;53485;49.326;9.738;2023-04-03T08:46:52;2.80;;;1.27;;
9240;SDS011;53485;49.326;9.738;2023-04-03T08:49:47;2.37;;;1.20;;
9240;SDS011;53485;49.326;9.738;2023-04-03T08:51:54;2.60;;;1.23;;
9240;SDS011;53485;49.326;9.738;2023-04-03T08:54:23;5.83;;;1.33;;
9240;SDS011;53485;49.326;9.738;2023-04-03T08:56:47;3.03;;;1.40;;
9240;SDS011;53485;49.326;9.738;2023-04-03T08:59:14;3.57;;;1.63;;
9240;SDS011;53485;49.326;9.738;2023-04-03T09:01:40;5.73;;;1.97;;
9240;SDS011;53485;49.326;9.738;2023-04-03T09:04:12;2.47;;;1.50;;
9240;SDS011;53485;49.326;9.738;2023-04-03T09:06:36;5.53;;;1.70;;
9240;SDS011;53485;49.326;9.738;2023-04-03T09:09:07;5.47;;;1.50;;
9240;SDS011;53485;49.326;9.738;2023-04-03T09:11:39;4.17;;;1.70;;
9240;SDS011;53485;49.326;9.738;2023-04-03T09:14:07;2.10;;;1.30;;
9240;SDS011;53485;49.326;9.738;2023-04-03T09:19:15;3.73;;;1.30;;
9240;SDS011;53485;49.326;9.738;2023-04-03T09:21:38;4.00;;;1.37;;
9240;SDS011;53485;49.326;9.738;2023-04-03T09:24:05;3.47;;;1.27;;
9240;SDS011;53485;49.326;9.738;2023-04-03T09:26:31;3.30;;;1.30;;
9240;SDS011;53485;49.326;9.738;2023-04-03T09:28:58;3.03;;;1.10;;
9240;SDS011;53485;49.326;9.738;2023-04-03T09:31:24;1.33;;;1.00;;
9240;SDS011;53485;49.326;9.738;2023-04-03T09:33:49;1.87;;;1.10;;
9240;SDS011;53485;49.326;9.738;2023-04-03T09:36:36;4.40;;;1.13;;
9240;SDS011;53485;49.326;9.738;2023-04-03T09:38:41;3.90;;;1.10;;
9240;SDS011;53485;49.326;9.738;2023-04-03T09:41:16;3.83;;;1.63;;
9240;SDS011;53485;49.326;9.738;2023-04-03T09:43:41;2.23;;;1.30;;
9240;SDS011;53485;49.326;9.738;2023-04-03T09:48:39;3.40;;;1.97;;
9240;SDS011;53485;49.326;9.738;2023-04-03T09:51:08;2.20;;;1.20;;
9240;SDS011;53485;49.326;9.738;2023-04-03T09:53:36;2.13;;;1.03;;
9240;SDS011;53485;49.326;9.738;2023-04-03T09:56:03;3.27;;;1.00;;
9240;SDS011;53485;49.326;9.738;2023-04-03T09:58:29;2.97;;;1.17;;
9240;SDS011;53485;49.326;9.738;2023-04-03T10:00:56;1.50;;;1.10;;
9240;SDS011;53485;49.326;9.738;2023-04-03T10:03:23;2.13;;;0.90;;
9240;SDS011;53485;49.326;9.738;2023-04-03T10:05:47;2.33;;;1.20;;
9240;SDS011;53485;49.326;9.738;2023-04-03T10:08:29;2.37;;;1.10;;
9240;SDS011;53485;49.326;9.738;2023-04-03T10:13:27;1.40;;;1.00;;
9240;SDS011;53485;49.326;9.738;2023-04-03T10:15:55;4.23;;;1.30;;
9240;SDS011;53485;49.326;9.738;2023-04-03T10:18:28;3.10;;;1.10;;
9240;SDS011;53485;49.326;9.738;2023-04-03T10:20:51;1.77;;;0.90;;
9240;SDS011;53485;49.326;9.738;2023-04-03T10:23:21;2.13;;;0.97;;
9240;SDS011;53485;49.326;9.738;2023-04-03T10:25:56;2.00;;;1.30;;
9240;SDS011;53485;49.326;9.738;2023-04-03T10:28:27;3.50;;;1.07;;
9240;SDS011;53485;49.326;9.738;2023-04-03T10:30:55;3.57;;;1.60;;
9240;SDS011;53485;49.326;9.738;2023-04-03T10:33:20;2.63;;;1.03;;
9240;SDS011;53485;49.326;9.738;2023-04-03T10:35:53;3.27;;;1.27;;
9240;SDS011;53485;49.326;9.738;2023-04-03T10:38:20;1.33;;;1.03;;
9240;SDS011;53485;49.326;9.738;2023-04-03T10:43:24;3.37;;;1.30;;
9240;SDS011;53485;49.326;9.738;2023-04-03T10:45:49;2.20;;;0.87;;
9240;SDS011;53485;49.326;9.738;2023-04-03T10:48:16;3.00;;;1.17;;
9240;SDS011;53485;49.326;9.738;2023-04-03T10:50:43;2.67;;;1.13;;
9240;SDS011;53485;49.326;9.738;2023-04-03T10:53:19;7.67;;;2.53;;
9240;SDS011;53485;49.326;9.738;2023-04-03T10:55:44;3.07;;;0.90;;
9240;SDS011;53485;49.326;9.738;2023-04-03T11:00:38;3.73;;;1.33;;
9240;SDS011;53485;49.326;9.738;2023-04-03T11:03:03;0.93;;;0.60;;
9240;SDS011;53485;49.326;9.738;2023-04-03T11:05:47;1.67;;;0.83;;
9240;SDS011;53485;49.326;9.738;2023-04-03T11:08:15;1.23;;;0.80;;
9240;SDS011;53485;49.326;9.738;2023-04-03T11:10:42;1.50;;;0.70;;
9240;SDS011;53485;49.326;9.738;2023-04-03T11:13:11;2.53;;;0.73;;
9240;SDS011;53485;49.326;9.738;2023-04-03T11:15:34;1.73;;;0.70;;
9240;SDS011;53485;49.326;9.738;2023-04-03T11:18:02;2.33;;;0.80;;
9240;SDS011;53485;49.326;9.738;2023-04-03T11:20:28;2.07;;;0.90;;
9240;SDS011;53485;49.326;9.738;2023-04-03T11:22:58;1.20;;;0.93;;
9240;SDS011;53485;49.326;9.738;2023-04-03T11:25:25;2.13;;;1.10;;
9240;SDS011;53485;49.326;9.738;2023-04-03T11:27:54;2.10;;;0.90;;
9240;SDS011;53485;49.326;9.738;2023-04-03T11:30:20;2.03;;;0.80;;
9240;SDS011;53485;49.326;9.738;2023-04-03T11:32:52;1.53;;;1.10;;
9240;SDS011;53485;49.326;9.738;2023-04-03T11:35:14;1.33;;;1.20;;
9240;SDS011;53485;49.326;9.738;2023-04-03T11:37:43;1.77;;;0.90;;
9240;SDS011;53485;49.326;9.738;2023-04-03T11:40:08;4.30;;;1.20;;
9240;SDS011;53485;49.326;9.738;2023-04-03T11:42:36;1.47;;;0.80;;
9240;SDS011;53485;49.326;9.738;2023-04-03T11:50:06;1.60;;;0.80;;
9240;SDS011;53485;49.326;9.738;2023-04-03T11:52:55;1.23;;;0.80;;
9240;SDS011;53485;49.326;9.738;2023-04-03T11:55:41;2.73;;;1.00;;
9240;SDS011;53485;49.326;9.738;2023-04-03T11:58:03;2.83;;;0.77;;
9240;SDS011;53485;49.326;9.738;2023-04-03T12:03:00;2.40;;;0.90;;
9240;SDS011;53485;49.326;9.738;2023-04-03T12:05:28;4.40;;;1.30;;
9240;SDS011;53485;49.326;9.738;2023-04-03T12:10:25;1.83;;;1.07;;
9240;SDS011;53485;49.326;9.738;2023-04-03T12:12:55;1.20;;;1.10;;
9240;SDS011;53485;49.326;9.738;2023-04-03T12:15:23;1.10;;;0.80;;
9240;SDS011;53485;49.326;9.738;2023-04-03T12:17:48;2.40;;;0.90;;
9240;SDS011;53485;49.326;9.738;2023-04-03T12:23:06;2.20;;;1.00;;
9240;SDS011;53485;49.326;9.738;2023-04-03T12:25:48;1.40;;;0.80;;
9240;SDS011;53485;49.326;9.738;2023-04-03T12:27:56;1.40;;;0.80;;
9240;SDS011;53485;49.326;9.738;2023-04-03T12:30:25;1.00;;;0.80;;
9240;SDS011;53485;49.326;9.738;2023-04-03T12:32:54;2.10;;;0.93;;
9240;SDS011;53485;49.326;9.738;2023-04-03T12:35:20;2.20;;;1.00;;
9240;SDS011;53485;49.326;9.738;2023-04-03T12:37:51;3.37;;;1.00;;
9240;SDS011;53485;49.326;9.738;2023-04-03T12:41:23;2.37;;;0.90;;
9240;SDS011;53485;49.326;9.738;2023-04-03T12:43:02;1.90;;;0.90;;
9240;SDS011;53485;49.326;9.738;2023-04-03T12:45:25;1.60;;;1.03;;
9240;SDS011;53485;49.326;9.738;2023-04-03T12:47:52;1.17;;;0.80;;
9240;SDS011;53485;49.326;9.738;2023-04-03T12:50:27;2.63;;;1.10;;
9240;SDS011;53485;49.326;9.738;2023-04-03T12:52:56;3.10;;;0.90;;
9240;SDS011;53485;49.326;9.738;2023-04-03T12:55:21;1.47;;;0.80;;
9240;SDS011;53485;49.326;9.738;2023-04-03T12:57:47;3.27;;;1.00;;
9240;SDS011;53485;49.326;9.738;2023-04-03T13:02:46;1.93;;;1.00;;
9240;SDS011;53485;49.326;9.738;2023-04-03T13:05:15;1.67;;;0.90;;
9240;SDS011;53485;49.326;9.738;2023-04-03T13:07:39;1.43;;;1.00;;
9240;SDS011;53485;49.326;9.738;2023-04-03T13:10:14;1.23;;;0.93;;
9240;SDS011;53485;49.326;9.738;2023-04-03T13:12:48;1.97;;;0.80;;
9240;SDS011;53485;49.326;9.738;2023-04-03T13:15:17;2.80;;;0.87;;
9240;SDS011;53485;49.326;9.738;2023-04-03T13:17:42;1.80;;;0.90;;
9240;SDS011;53485;49.326;9.738;2023-04-03T13:20:10;1.57;;;1.00;;
9240;SDS011;53485;49.326;9.738;2023-04-03T13:22:36;1.93;;;1.10;;
9240;SDS011;53485;49.326;9.738;2023-04-03T13:25:03;2.97;;;1.00;;
9240;SDS011;53485;49.326;9.738;2023-04-03T13:27:27;3.60;;;1.00;;
9240;SDS011;53485;49.326;9.738;2023-04-03T13:29:54;2.90;;;1.20;;
9240;SDS011;53485;49.326;9.738;2023-04-03T13:32:20;5.63;;;1.27;;
9240;SDS011;53485;49.326;9.738;2023-04-03T13:34:46;2.60;;;1.00;;
9240;SDS011;53485;49.326;9.738;2023-04-03T13:39:44;2.10;;;0.97;;
9240;SDS011;53485;49.326;9.738;2023-04-03T13:42:15;2.13;;;1.00;;
9240;SDS011;53485;49.326;9.738;2023-04-03T13:44:40;1.87;;;0.90;;
9240;SDS011;53485;49.326;9.738;2023-04-03T13:52:23;2.73;;;1.10;;
9240;SDS011;53485;49.326;9.738;2023-04-03T13:54:48;1.20;;;1.10;;
9240;SDS011;53485;49.326;9.738;2023-04-03T13:57:14;1.60;;;1.50;;
9240;SDS011;53485;49.326;9.738;2023-04-03T13:59:40;1.77;;;0.90;;
9240;SDS011;53485;49.326;9.738;2023-04-03T14:02:10;2.27;;;0.93;;
9240;SDS011;53485;49.326;9.738;2023-04-03T14:04:44;3.40;;;1.47;;
9240;SDS011;53485;49.326;9.738;2023-04-03T14:06:59;2.03;;;1.00;;
9240;SDS011;53485;49.326;9.738;2023-04-03T14:09:26;1.87;;;1.20;;
9240;SDS011;53485;49.326;9.738;2023-04-03T14:11:54;2.57;;;0.90;;
9240;SDS011;53485;49.326;9.738;2023-04-03T14:14:20;1.17;;;0.90;;
9240;SDS011;53485;49.326;9.738;2023-04-03T14:16:47;0.90;;;0.90;;
9240;SDS011;53485;49.326;9.738;2023-04-03T14:19:17;1.33;;;1.10;;
9240;SDS011;53485;49.326;9.738;2023-04-03T14:21:40;1.40;;;0.80;;
9240;SDS011;53485;49.326;9.738;2023-04-03T14:24:07;1.23;;;0.90;;
9240;SDS011;53485;49.326;9.738;2023-04-03T14:26:34;2.63;;;1.43;;
9240;SDS011;53485;49.326;9.738;2023-04-03T14:29:00;1.47;;;0.90;;
9240;SDS011;53485;49.326;9.738;2023-04-03T14:31:26;0.97;;;0.70;;
9240;SDS011;53485;49.326;9.738;2023-04-03T14:33:53;1.83;;;0.70;;
9240;SDS011;53485;49.326;9.738;2023-04-03T14:36:21;0.80;;;0.80;;
9240;SDS011;53485;49.326;9.738;2023-04-03T14:38:46;1.17;;;0.80;;
9240;SDS011;53485;49.326;9.738;2023-04-03T14:41:13;9.57;;;1.70;;
9240;SDS011;53485;49.326;9.738;2023-04-03T14:43:39;4.00;;;1.10;;
9240;SDS011;53485;49.326;9.738;2023-04-03T14:46:05;2.47;;;1.20;;
9240;SDS011;53485;49.326;9.738;2023-04-03T14:48:31;0.90;;;0.90;;
9240;SDS011;53485;49.326;9.738;2023-04-03T14:50:58;1.20;;;1.00;;
9240;SDS011;53485;49.326;9.738;2023-04-03T14:53:24;1.53;;;0.80;;
9240;SDS011;53485;49.326;9.738;2023-04-03T14:55:51;1.13;;;0.77;;
9240;SDS011;53485;49.326;9.738;2023-04-03T14:58:18;1.70;;;0.80;;
9240;SDS011;53485;49.326;9.738;2023-04-03T15:00:44;1.30;;;0.80;;
9240;SDS011;53485;49.326;9.738;2023-04-03T15:03:16;1.97;;;0.80;;
9240;SDS011;53485;49.326;9.738;2023-04-03T15:05:41;1.37;;;0.90;;
9240;SDS011;53485;49.326;9.738;2023-04-03T15:08:10;1.33;;;0.90;;
9240;SDS011;53485;49.326;9.738;2023-04-03T15:10:33;1.17;;;1.03;;
9240;SDS011;53485;49.326;9.738;2023-04-03T15:13:00;1.33;;;0.60;;
9240;SDS011;53485;49.326;9.738;2023-04-03T15:15:28;1.13;;;0.70;;
9240;SDS011;53485;49.326;9.738;2023-04-03T15:17:54;2.40;;;1.30;;
9240;SDS011;53485;49.326;9.738;2023-04-03T15:20:20;1.83;;;0.90;;
9240;SDS011;53485;49.326;9.738;2023-04-03T15:22:46;1.87;;;1.03;;
9240;SDS011;53485;49.326;9.738;2023-04-03T15:25:12;2.03;;;0.73;;
9240;SDS011;53485;49.326;9.738;2023-04-03T15:27:38;1.97;;;0.90;;
9240;SDS011;53485;49.326;9.738;2023-04-03T15:30:05;2.27;;;0.93;;
9240;SDS011;53485;49.326;9.738;2023-04-03T15:32:31;1.30;;;0.70;;
9240;SDS011;53485;49.326;9.738;2023-04-03T15:34:57;0.80;;;0.80;;
9240;SDS011;53485;49.326;9.738;2023-04-03T15:37:24;1.40;;;0.70;;
9240;SDS011;53485;49.326;9.738;2023-04-03T15:39:50;1.10;;;0.70;;